Time;durP1;ratioP1;P1;durP2;ratioP2;P2;SDS_P1;SDS_P2;PMS_P1;PMS_P2;Temp;Humidity;BMP_temperature;BMP_pressure;BME280_temperature;BME280_humidity;BME280_pressure;Samples;Min_cycle;Max_cycle;Signal;HPM_P1;HPM_P2
2023/10/14 00:04:59;;;;;;;19.20;13.52;;;21.00;80.10;;;;;;10854605;32;20045;-69
2023/10/14 00:11:07;;;;;;;21.35;14.73;;;21.00;80.20;;;;;;10867028;32;20024;-69
2023/10/14 00:17:34;;;;;;;25.85;16.35;;;20.90;80.20;;;;;;10865671;32;20047;-69
2023/10/14 00:23:34;;;;;;;24.15;14.87;;;20.90;80.20;;;;;;10865751;32;20066;-69
2023/10/14 00:29:36;;;;;;;18.70;15.52;;;20.90;80.40;;;;;;10865243;32;20023;-69
2023/10/14 00:35:41;;;;;;;15.98;12.60;;;20.80;80.30;;;;;;10865261;32;20016;-69
2023/10/14 00:41:52;;;;;;;23.35;16.87;;;20.80;80.30;;;;;;10864853;32;20015;-69
2023/10/14 00:47:56;;;;;;;24.10;18.12;;;20.80;80.50;;;;;;10864734;32;20028;-69
2023/10/14 00:54:05;;;;;;;19.10;15.07;;;20.80;80.80;;;;;;10866312;32;20042;-69
2023/10/14 01:00:11;;;;;;;18.02;13.73;;;20.80;80.80;;;;;;10850939;32;20020;-69
2023/10/14 01:12:37;;;;;;;21.00;16.23;;;20.60;80.80;;;;;;10865321;32;20337;-70
2023/10/14 01:19:28;;;;;;;16.08;12.95;;;20.60;81.00;;;;;;10863987;32;20020;-70
2023/10/14 01:25:31;;;;;;;24.10;16.80;;;20.50;81.00;;;;;;10864279;32;20050;-70
2023/10/14 01:32:10;;;;;;;15.90;14.23;;;20.40;81.00;;;;;;10863451;32;20015;-69
2023/10/14 01:38:13;;;;;;;19.60;16.03;;;20.40;81.00;;;;;;10863800;32;20015;-69
2023/10/14 01:44:21;;;;;;;24.02;18.27;;;20.30;81.10;;;;;;10849628;32;20085;-69
2023/10/14 01:50:23;;;;;;;22.63;18.93;;;20.30;81.10;;;;;;10859447;32;20027;-70
2023/10/14 01:56:27;;;;;;;23.73;18.95;;;20.30;81.10;;;;;;10862207;32;20008;-69
2023/10/14 02:02:30;;;;;;;24.77;18.92;;;20.30;81.10;;;;;;10862652;32;20023;-69
2023/10/14 02:08:33;;;;;;;27.15;19.70;;;20.20;81.30;;;;;;10862952;32;20019;-69
2023/10/14 02:14:35;;;;;;;25.33;19.37;;;20.20;81.30;;;;;;10863490;32;20046;-69
2023/10/14 02:20:45;;;;;;;23.80;20.65;;;20.10;81.20;;;;;;10861281;32;20027;-69
2023/10/14 02:26:48;;;;;;;33.85;23.80;;;20.10;81.40;;;;;;10863165;32;20046;-69
2023/10/14 02:32:50;;;;;;;25.42;19.77;;;20.10;81.50;;;;;;10862351;32;20042;-69
2023/10/14 02:38:53;;;;;;;29.58;21.67;;;20.10;81.40;;;;;;10861674;32;20034;-69
2023/10/14 02:44:55;;;;;;;24.73;19.55;;;20.00;81.40;;;;;;10835615;32;20089;-69
2023/10/14 02:50:57;;;;;;;29.80;19.45;;;20.10;81.50;;;;;;10861230;32;20306;-69
2023/10/14 02:57:00;;;;;;;35.20;23.60;;;20.00;81.50;;;;;;10861154;32;20016;-69
2023/10/14 03:03:02;;;;;;;23.02;20.75;;;20.00;81.40;;;;;;10861974;32;20046;-68
2023/10/14 03:09:07;;;;;;;24.87;21.50;;;19.90;81.40;;;;;;10868182;32;20341;-68
2023/10/14 03:15:19;;;;;;;21.00;18.50;;;20.00;81.50;;;;;;10867393;32;20023;-69
2023/10/14 03:21:27;;;;;;;15.10;11.43;;;19.90;81.50;;;;;;10867327;32;20034;-69
2023/10/14 03:27:32;;;;;;;18.10;14.45;;;19.70;81.70;;;;;;10867007;32;20020;-69
2023/10/14 03:33:44;;;;;;;13.18;11.77;;;19.50;82.00;;;;;;10867604;32;20385;-70
2023/10/14 03:39:54;;;;;;;19.33;17.00;;;19.50;82.00;;;;;;10853486;32;20104;-69
2023/10/14 03:45:58;;;;;;;17.70;13.85;;;19.40;82.10;;;;;;10866139;32;20059;-69
2023/10/14 03:52:00;;;;;;;15.10;13.32;;;19.30;82.00;;;;;;10866345;32;20020;-69
2023/10/14 03:58:05;;;;;;;16.10;13.93;;;19.30;82.10;;;;;;10862846;32;20050;-69
2023/10/14 04:04:17;;;;;;;13.25;11.93;;;19.30;81.90;;;;;;10866031;32;20042;-70
2023/10/14 04:10:23;;;;;;;23.02;15.80;;;19.30;81.80;;;;;;10866465;32;20062;-68
2023/10/14 04:16:37;;;;;;;15.75;12.57;;;19.30;82.00;;;;;;10865309;32;20015;-68
2023/10/14 04:22:39;;;;;;;20.00;15.45;;;19.40;82.00;;;;;;10865582;32;20042;-69
2023/10/14 04:28:53;;;;;;;20.00;15.55;;;19.40;82.00;;;;;;10865293;32;20028;-69
2023/10/14 04:34:57;;;;;;;19.77;15.27;;;19.40;81.90;;;;;;10866407;32;20058;-69
2023/10/14 04:41:03;;;;;;;20.60;17.10;;;19.20;81.80;;;;;;10849175;32;20028;-69
2023/10/14 04:47:05;;;;;;;18.42;16.10;;;19.20;82.00;;;;;;10864402;32;20321;-69
2023/10/14 04:53:13;;;;;;;17.50;15.68;;;19.20;82.00;;;;;;10865077;32;20345;-69
2023/10/14 04:59:22;;;;;;;18.55;16.00;;;19.20;81.90;;;;;;10851004;32;20054;-69
2023/10/14 05:05:24;;;;;;;12.32;10.52;;;19.10;82.20;;;;;;10850945;32;20337;-69
2023/10/14 05:11:27;;;;;;;23.50;17.33;;;19.00;82.30;;;;;;10863958;32;20019;-69
2023/10/14 05:17:32;;;;;;;16.60;13.98;;;18.80;82.50;;;;;;10863949;32;20042;-68
2023/10/14 05:23:34;;;;;;;18.20;15.85;;;18.90;82.20;;;;;;10863829;32;20047;-68
2023/10/14 05:29:39;;;;;;;15.20;10.98;;;18.90;82.20;;;;;;10845047;32;20036;-69
2023/10/14 05:35:42;;;;;;;15.20;13.62;;;18.80;82.10;;;;;;10863985;32;20327;-69
2023/10/14 05:41:48;;;;;;;12.10;9.32;;;18.70;82.30;;;;;;10861357;32;20023;-69
2023/10/14 05:47:50;;;;;;;18.92;15.20;;;18.70;82.20;;;;;;10848573;32;20057;-69
2023/10/14 05:53:52;;;;;;;17.58;13.50;;;18.70;82.40;;;;;;10862884;32;20020;-68
2023/10/14 05:59:57;;;;;;;13.98;12.55;;;18.80;82.50;;;;;;10864019;32;20016;-69
2023/10/14 06:06:02;;;;;;;14.18;12.68;;;18.90;82.40;;;;;;10862784;32;20046;-69
2023/10/14 06:12:12;;;;;;;12.45;11.15;;;18.90;82.30;;;;;;10849289;32;20020;-69
2023/10/14 06:18:18;;;;;;;13.38;11.93;;;18.90;82.20;;;;;;10862363;32;20034;-69
2023/10/14 06:24:20;;;;;;;15.68;12.75;;;19.00;82.10;;;;;;10849780;32;20374;-69
2023/10/14 06:30:22;;;;;;;25.62;16.17;;;18.90;82.20;;;;;;10862089;32;20104;-69
2023/10/14 06:36:24;;;;;;;20.48;15.02;;;18.90;82.30;;;;;;10862598;32;20019;-69
2023/10/14 06:42:27;;;;;;;16.23;14.27;;;18.90;82.40;;;;;;10858103;32;20432;-69
2023/10/14 06:48:29;;;;;;;19.58;13.25;;;19.00;82.50;;;;;;10633353;27;7085096;-69
2023/10/14 06:54:36;;;;;;;13.85;11.32;;;19.00;82.30;;;;;;10823717;33;20016;-69
2023/10/14 07:00:40;;;;;;;15.43;12.80;;;19.00;82.40;;;;;;10797277;33;20040;-69
2023/10/14 07:06:58;;;;;;;14.95;13.48;;;19.00;82.40;;;;;;10786202;33;20029;-69
2023/10/14 07:13:01;;;;;;;16.37;14.65;;;19.10;82.50;;;;;;10785213;33;20040;-69
2023/10/14 07:19:03;;;;;;;12.60;11.25;;;19.20;82.60;;;;;;10783847;33;20043;-69
2023/10/14 07:25:05;;;;;;;15.45;13.45;;;19.30;82.70;;;;;;10787110;33;20421;-69
2023/10/14 07:31:08;;;;;;;15.57;12.27;;;19.10;82.80;;;;;;10772841;33;20036;-69
2023/10/14 07:37:13;;;;;;;14.75;12.88;;;19.10;82.80;;;;;;10786834;33;20358;-68
2023/10/14 07:43:15;;;;;;;28.77;20.77;;;19.10;82.60;;;;;;10760826;33;20062;-68
2023/10/14 07:49:18;;;;;;;19.58;15.50;;;19.00;82.60;;;;;;10785975;33;20055;-68
2023/10/14 07:55:25;;;;;;;20.50;18.12;;;19.00;82.80;;;;;;10790390;33;20020;-68
2023/10/14 08:01:28;;;;;;;23.50;20.60;;;19.20;82.90;;;;;;10792127;33;20024;-69
2023/10/14 08:07:30;;;;;;;24.83;21.60;;;19.20;82.70;;;;;;10792496;33;20055;-69
2023/10/14 08:13:33;;;;;;;21.12;13.15;;;19.30;82.60;;;;;;10779296;33;20028;-69
2023/10/14 08:19:37;;;;;;;21.27;18.50;;;19.30;82.60;;;;;;10791137;33;20028;-70
2023/10/14 08:25:43;;;;;;;33.20;20.95;;;19.40;82.70;;;;;;10790839;33;20033;-69
2023/10/14 08:31:47;;;;;;;27.17;20.58;;;19.40;82.70;;;;;;10791653;33;20367;-70
2023/10/14 08:37:51;;;;;;;23.27;17.02;;;19.40;82.50;;;;;;10791357;33;20051;-69
2023/10/14 08:43:56;;;;;;;35.95;25.70;;;19.30;82.70;;;;;;10792661;33;20020;-70
2023/10/14 08:50:00;;;;;;;24.55;17.40;;;19.30;82.60;;;;;;10789581;33;20062;-70
2023/10/14 08:56:04;;;;;;;24.77;19.58;;;19.50;82.60;;;;;;10787586;33;20020;-69
2023/10/14 09:02:10;;;;;;;32.38;25.40;;;19.50;82.50;;;;;;10789732;33;20078;-70
2023/10/14 09:08:19;;;;;;;29.08;21.75;;;19.60;82.90;;;;;;10786771;33;20028;-69
2023/10/14 09:14:21;;;;;;;39.80;29.12;;;19.60;83.20;;;;;;10790149;33;20051;-69
2023/10/14 09:20:37;;;;;;;43.85;30.85;;;19.70;83.20;;;;;;10788712;33;20024;-69
2023/10/14 09:26:44;;;;;;;31.55;23.83;;;19.80;83.10;;;;;;10790671;33;20326;-69
2023/10/14 09:32:46;;;;;;;25.00;16.00;;;19.80;83.10;;;;;;10789765;33;20024;-70
2023/10/14 09:38:50;;;;;;;40.85;29.42;;;19.80;83.10;;;;;;10787071;33;20043;-70
2023/10/14 09:44:53;;;;;;;21.25;18.12;;;19.90;83.00;;;;;;10790044;33;20024;-69
2023/10/14 09:51:02;;;;;;;46.85;34.35;;;20.00;83.20;;;;;;10789125;33;20047;-69
2023/10/14 09:57:05;;;;;;;33.40;27.13;;;20.10;83.00;;;;;;10775915;33;20358;-69
2023/10/14 10:03:10;;;;;;;34.40;27.90;;;20.20;82.80;;;;;;10839233;32;20094;-70
2023/10/14 10:09:49;;;;;;;38.92;27.75;;;20.30;82.50;;;;;;10789971;33;20047;-70
2023/10/14 10:15:53;;;;;;;45.75;34.63;;;20.50;82.20;;;;;;10827045;32;20315;-72
2023/10/14 10:22:21;;;;;;;52.08;37.90;;;20.50;82.00;;;;;;10826380;32;20346;-70
2023/10/14 10:28:25;;;;;;;48.30;38.97;;;20.70;81.70;;;;;;10825409;32;20036;-70
2023/10/14 10:34:33;;;;;;;49.55;32.90;;;20.90;81.30;;;;;;10827780;32;20400;-70
2023/10/14 10:40:35;;;;;;;49.88;37.63;;;21.10;81.10;;;;;;10826512;32;20163;-71
2023/10/14 10:46:44;;;;;;;52.38;36.22;;;21.30;80.70;;;;;;10826573;32;20453;-70
2023/10/14 10:53:16;;;;;;;51.42;37.22;;;21.60;80.20;;;;;;10795501;32;20055;-70
2023/10/14 10:59:18;;;;;;;60.55;47.85;;;21.80;79.90;;;;;;10786197;33;20338;-71
2023/10/14 11:05:24;;;;;;;44.75;34.63;;;22.10;79.10;;;;;;10787569;33;20342;-70
2023/10/14 11:11:31;;;;;;;54.25;39.00;;;22.20;78.60;;;;;;10786406;33;20078;-71
2023/10/14 11:17:37;;;;;;;36.03;26.83;;;22.50;77.60;;;;;;10784437;33;20016;-72
2023/10/14 11:23:40;;;;;;;46.45;33.65;;;22.60;77.00;;;;;;10787958;33;20024;-71
2023/10/14 11:29:42;;;;;;;54.40;42.08;;;22.70;76.20;;;;;;10793630;33;20024;-71
2023/10/14 11:35:49;;;;;;;55.33;41.50;;;22.80;75.30;;;;;;10793104;33;20368;-71
2023/10/14 11:42:01;;;;;;;46.28;35.63;;;22.90;75.00;;;;;;10793703;33;20330;-71
2023/10/14 11:48:38;;;;;;;45.12;36.50;;;23.00;74.50;;;;;;10792315;33;20399;-69
2023/10/14 11:54:41;;;;;;;40.70;32.33;;;23.20;74.10;;;;;;10792434;33;20020;-70
2023/10/14 12:00:43;;;;;;;40.72;31.80;;;23.20;73.90;;;;;;10779190;33;20051;-70
2023/10/14 12:06:45;;;;;;;39.95;27.92;;;23.20;73.40;;;;;;10792350;33;20016;-71
2023/10/14 12:12:52;;;;;;;58.08;42.92;;;23.20;73.30;;;;;;10792123;33;20055;-69
2023/10/14 12:18:58;;;;;;;43.90;28.23;;;23.40;72.50;;;;;;10793330;33;20050;-71
2023/10/14 12:25:02;;;;;;;33.92;25.67;;;23.40;71.90;;;;;;10792397;33;20429;-71
2023/10/14 12:31:08;;;;;;;31.30;23.45;;;23.50;70.90;;;;;;10791741;33;20067;-70
2023/10/14 12:37:18;;;;;;;39.28;30.73;;;23.50;70.80;;;;;;10792053;33;20047;-70
2023/10/14 12:43:33;;;;;;;29.67;21.42;;;23.50;70.90;;;;;;10792309;33;20028;-71
2023/10/14 12:49:37;;;;;;;29.63;21.35;;;23.60;70.10;;;;;;10790594;33;20028;-71
2023/10/14 12:55:44;;;;;;;54.42;38.13;;;23.70;69.40;;;;;;10791130;33;20212;-73
2023/10/14 13:01:46;;;;;;;35.17;29.90;;;23.70;69.40;;;;;;10790768;33;20040;-71
2023/10/14 13:07:52;;;;;;;33.03;25.05;;;23.70;69.40;;;;;;10790891;33;20051;-72
2023/10/14 13:13:55;;;;;;;31.17;22.87;;;23.70;69.50;;;;;;10791161;33;20440;-70
2023/10/14 13:19:58;;;;;;;27.90;21.33;;;23.70;69.50;;;;;;10789588;33;20082;-70
2023/10/14 13:26:00;;;;;;;24.30;17.87;;;23.80;69.90;;;;;;10788612;33;20346;-71
2023/10/14 13:32:02;;;;;;;24.65;16.42;;;23.90;70.10;;;;;;10789211;33;20058;-70
2023/10/14 13:38:08;;;;;;;26.15;18.50;;;23.90;70.40;;;;;;10789207;33;20020;-70
2023/10/14 13:44:12;;;;;;;29.08;17.80;;;24.00;70.50;;;;;;10789509;33;20426;-70
2023/10/14 13:50:24;;;;;;;24.90;16.98;;;24.10;70.30;;;;;;10787273;33;20032;-70
2023/10/14 13:56:26;;;;;;;19.60;15.90;;;24.30;70.40;;;;;;10787980;33;20414;-70
2023/10/14 14:02:29;;;;;;;22.05;14.68;;;24.30;70.20;;;;;;10788340;33;20043;-70
2023/10/14 14:08:31;;;;;;;22.80;15.75;;;24.30;70.20;;;;;;10788097;33;20012;-70
2023/10/14 14:14:36;;;;;;;18.87;15.10;;;24.10;70.60;;;;;;10785699;33;20032;-70
2023/10/14 14:20:40;;;;;;;22.48;17.12;;;24.10;71.00;;;;;;10822120;33;20058;-70
2023/10/14 14:26:42;;;;;;;21.52;14.87;;;24.00;71.10;;;;;;10812589;33;20028;-70
2023/10/14 14:32:44;;;;;;;26.70;15.15;;;24.00;71.20;;;;;;10774054;33;20346;-70
2023/10/14 14:38:46;;;;;;;19.87;15.18;;;23.90;71.20;;;;;;10774564;33;20027;-70
2023/10/14 14:44:48;;;;;;;20.35;14.20;;;23.90;71.40;;;;;;10787830;33;20037;-71
2023/10/14 14:50:50;;;;;;;19.25;14.18;;;23.80;71.30;;;;;;10855821;26;20036;-70
2023/10/14 14:56:53;;;;;;;22.58;15.95;;;23.80;71.60;;;;;;10861977;32;20402;-70
2023/10/14 15:02:57;;;;;;;17.50;14.68;;;23.80;71.60;;;;;;10848322;32;20023;-70
2023/10/14 15:08:59;;;;;;;20.10;12.43;;;23.80;71.70;;;;;;10860814;32;20020;-71
2023/10/14 15:15:02;;;;;;;17.48;11.73;;;23.80;71.90;;;;;;10862073;32;20042;-70
2023/10/14 15:21:05;;;;;;;19.70;15.23;;;23.80;72.10;;;;;;10861575;32;20341;-70
2023/10/14 15:27:07;;;;;;;17.95;13.07;;;23.80;72.10;;;;;;10861313;32;20050;-70
2023/10/14 15:33:10;;;;;;;17.15;12.68;;;24.10;71.80;;;;;;10860483;32;20016;-71
2023/10/14 15:39:15;;;;;;;19.42;14.02;;;24.80;70.60;;;;;;10843911;32;20032;-71
2023/10/14 15:45:25;;;;;;;20.70;14.52;;;25.20;70.00;;;;;;10828452;32;20082;-70
2023/10/14 15:51:27;;;;;;;16.98;14.48;;;25.00;70.10;;;;;;10822950;33;20020;-71
2023/10/14 15:57:29;;;;;;;20.33;14.75;;;24.60;70.90;;;;;;10809687;33;20402;-71
2023/10/14 16:03:31;;;;;;;17.70;12.48;;;24.30;71.50;;;;;;10822897;33;20016;-70
2023/10/14 16:09:34;;;;;;;17.08;13.38;;;24.10;71.90;;;;;;10822682;33;20012;-70
2023/10/14 16:15:36;;;;;;;17.08;12.60;;;23.80;72.30;;;;;;10828100;32;20011;-70
2023/10/14 16:21:38;;;;;;;17.15;12.00;;;23.70;72.70;;;;;;10829332;33;20024;-70
2023/10/14 16:27:40;;;;;;;26.75;12.20;;;23.50;73.00;;;;;;10828430;33;20043;-70
2023/10/14 16:33:42;;;;;;;18.90;13.25;;;23.30;73.40;;;;;;10829555;33;20013;-71
2023/10/14 16:39:44;;;;;;;24.23;10.73;;;23.10;73.50;;;;;;10816031;32;20019;-72
2023/10/14 16:45:46;;;;;;;17.52;14.07;;;23.00;73.70;;;;;;10827901;32;20012;-72
2023/10/14 16:51:48;;;;;;;14.82;12.98;;;22.90;73.80;;;;;;10827754;33;20016;-72
2023/10/14 16:57:51;;;;;;;21.67;15.13;;;22.80;74.10;;;;;;10828111;33;20329;-72
2023/10/14 17:03:55;;;;;;;17.48;11.70;;;22.70;74.40;;;;;;10814033;33;20038;-72
2023/10/14 17:09:57;;;;;;;17.60;13.43;;;22.60;74.60;;;;;;10827137;33;20048;-72
2023/10/14 17:16:00;;;;;;;19.58;11.50;;;22.50;74.60;;;;;;10813687;33;20028;-72
2023/10/14 17:22:02;;;;;;;16.23;11.02;;;22.50;74.70;;;;;;10826734;32;20024;-72
2023/10/14 17:28:04;;;;;;;14.30;11.12;;;22.50;74.60;;;;;;10826780;33;20020;-72
2023/10/14 17:34:07;;;;;;;15.50;10.77;;;22.40;74.70;;;;;;10827196;33;20330;-72
2023/10/14 17:40:17;;;;;;;12.15;8.77;;;22.50;74.80;;;;;;10813758;33;20046;-72
2023/10/14 17:46:23;;;;;;;13.20;9.75;;;22.40;75.00;;;;;;10812999;32;20028;-72
2023/10/14 17:52:26;;;;;;;14.75;10.02;;;22.40;75.00;;;;;;10825939;33;20020;-72
2023/10/14 17:58:28;;;;;;;14.23;10.90;;;22.40;75.10;;;;;;10826910;33;20071;-72
2023/10/14 18:04:30;;;;;;;16.40;10.20;;;22.40;75.10;;;;;;10826298;33;20291;-72
2023/10/14 18:10:33;;;;;;;16.58;11.50;;;22.40;75.10;;;;;;10825475;33;20011;-72
2023/10/14 18:16:35;;;;;;;14.80;10.27;;;22.50;75.00;;;;;;10825892;33;20016;-72
2023/10/14 18:22:39;;;;;;;13.73;10.73;;;22.50;75.20;;;;;;10824952;33;20047;-71
2023/10/14 18:28:41;;;;;;;11.77;9.45;;;22.50;75.20;;;;;;10824740;33;20020;-72
2023/10/14 18:34:43;;;;;;;13.13;10.05;;;22.40;75.30;;;;;;10812240;32;20024;-72
2023/10/14 18:40:46;;;;;;;13.75;9.15;;;22.40;75.30;;;;;;10811219;33;20035;-72
2023/10/14 18:46:48;;;;;;;14.60;9.93;;;22.30;75.40;;;;;;10825565;33;20055;-72
2023/10/14 18:52:51;;;;;;;11.15;8.07;;;22.30;75.60;;;;;;10825475;33;20042;-72
2023/10/14 18:58:56;;;;;;;12.50;9.93;;;22.20;76.00;;;;;;10824899;33;20398;-72
2023/10/14 19:04:59;;;;;;;12.93;11.23;;;22.10;76.40;;;;;;10811418;32;20079;-72
2023/10/14 19:11:08;;;;;;;14.90;10.73;;;22.10;76.40;;;;;;10820948;32;20069;-72
2023/10/14 19:17:10;;;;;;;12.50;9.68;;;22.00;76.50;;;;;;10846478;32;20023;-70
2023/10/14 19:23:26;;;;;;;19.65;13.20;;;22.00;76.50;;;;;;10859544;32;20027;-71
2023/10/14 19:29:29;;;;;;;16.95;12.52;;;22.00;76.70;;;;;;10860976;32;20042;-70
2023/10/14 19:35:31;;;;;;;19.00;12.23;;;21.90;76.80;;;;;;10847193;32;20031;-70
2023/10/14 19:41:33;;;;;;;18.70;14.60;;;21.90;76.80;;;;;;10859198;32;20075;-70
2023/10/14 19:47:39;;;;;;;16.60;12.60;;;21.80;76.80;;;;;;10863102;32;20044;-70
2023/10/14 19:53:42;;;;;;;21.77;12.75;;;21.80;77.00;;;;;;10864568;32;20031;-71
2023/10/14 19:59:45;;;;;;;17.23;13.07;;;21.80;77.00;;;;;;10833216;32;20042;-70
2023/10/14 20:05:48;;;;;;;15.27;13.00;;;21.80;77.00;;;;;;10857699;32;20020;-71
2023/10/14 20:11:50;;;;;;;15.77;12.52;;;21.80;77.40;;;;;;10843494;32;20023;-70
2023/10/14 20:17:52;;;;;;;21.73;15.60;;;21.70;77.50;;;;;;10842164;32;20027;-70
2023/10/14 20:23:55;;;;;;;20.62;17.85;;;21.70;77.50;;;;;;10865506;32;20042;-71
2023/10/14 20:30:00;;;;;;;22.52;15.27;;;21.70;77.60;;;;;;10852487;32;20329;-70
2023/10/14 20:36:06;;;;;;;21.00;16.30;;;21.70;77.50;;;;;;10836649;32;20263;-70
2023/10/14 20:42:09;;;;;;;22.17;16.60;;;21.70;77.60;;;;;;10843694;32;20074;-70
2023/10/14 20:48:13;;;;;;;18.50;13.20;;;21.70;77.70;;;;;;10851273;32;20317;-70
2023/10/14 20:54:15;;;;;;;21.70;16.52;;;21.70;77.70;;;;;;10864254;32;20054;-70
2023/10/14 21:00:25;;;;;;;17.27;13.57;;;21.70;77.70;;;;;;10830472;32;20031;-70
2023/10/14 21:06:27;;;;;;;21.85;11.73;;;21.70;77.60;;;;;;10809926;32;20066;-70
2023/10/14 21:12:29;;;;;;;27.70;14.40;;;21.70;77.70;;;;;;10835991;32;20042;-70
2023/10/14 21:18:32;;;;;;;15.13;11.48;;;21.80;77.70;;;;;;10857674;32;20062;-70
2023/10/14 21:24:35;;;;;;;12.57;10.38;;;21.70;77.60;;;;;;10833824;32;20341;-70
2023/10/14 21:30:39;;;;;;;14.73;10.98;;;21.70;77.70;;;;;;10822174;33;20031;-70
2023/10/14 21:36:41;;;;;;;22.27;13.75;;;21.70;77.70;;;;;;10823843;32;20020;-70
2023/10/14 21:42:50;;;;;;;20.95;13.43;;;21.70;77.70;;;;;;10862573;32;20016;-70
2023/10/14 21:48:52;;;;;;;15.82;12.50;;;21.70;77.70;;;;;;10839217;32;20031;-70
2023/10/14 21:54:54;;;;;;;14.90;12.05;;;21.60;77.80;;;;;;10822203;32;20036;-70
2023/10/14 22:07:18;;;;;;;15.25;12.23;;;21.60;77.80;;;;;;10812057;33;20064;-70
2023/10/14 22:13:21;;;;;;;19.80;13.07;;;21.50;77.90;;;;;;10825292;32;20016;-71
2023/10/14 22:19:27;;;;;;;17.25;11.65;;;21.50;77.90;;;;;;10822631;33;20024;-70
2023/10/14 22:25:33;;;;;;;12.82;9.98;;;21.50;78.20;;;;;;10825129;33;20074;-70
2023/10/14 22:31:35;;;;;;;11.82;9.85;;;21.50;78.40;;;;;;10824914;33;20012;-70
2023/10/14 22:37:38;;;;;;;12.37;8.60;;;21.50;78.80;;;;;;10826119;32;20020;-70
2023/10/14 22:43:40;;;;;;;13.57;11.23;;;21.40;78.90;;;;;;10825925;33;20370;-70
2023/10/14 22:49:42;;;;;;;14.50;9.30;;;21.40;78.70;;;;;;10853384;26;20031;-70
2023/10/14 22:55:44;;;;;;;14.50;8.88;;;21.40;78.50;;;;;;10862116;32;20016;-70
2023/10/14 23:01:47;;;;;;;14.87;11.73;;;21.40;78.50;;;;;;10861892;32;20409;-70
2023/10/14 23:07:49;;;;;;;17.30;9.27;;;21.40;78.30;;;;;;10838006;32;20058;-70
2023/10/14 23:13:51;;;;;;;15.98;12.30;;;21.30;78.30;;;;;;10824502;33;20050;-70
2023/10/14 23:19:55;;;;;;;11.57;8.70;;;21.30;78.30;;;;;;10810837;33;20024;-70
2023/10/14 23:25:57;;;;;;;11.02;8.30;;;21.30;78.40;;;;;;10830480;33;20016;-70
2023/10/14 23:31:59;;;;;;;13.38;7.50;;;21.30;78.90;;;;;;10830870;33;20369;-70
2023/10/14 23:38:05;;;;;;;12.25;10.77;;;21.20;79.10;;;;;;10831141;33;20047;-70
2023/10/14 23:44:08;;;;;;;11.77;9.15;;;21.10;79.10;;;;;;10830423;33;20089;-70
2023/10/14 23:50:54;;;;;;;12.90;8.90;;;21.00;79.20;;;;;;10827829;33;20054;-70
2023/10/14 23:56:56;;;;;;;13.10;10.02;;;21.00;79.10;;;;;;10803645;33;20058;-70
